sensor_id;sensor_type;location;lat;lon;timestamp;temperature;humidity
36552;DHT22;22559;54.176;12.102;2023-01-30T00:01:43;4.90;99.90
36552;DHT22;22559;54.176;12.102;2023-01-30T00:04:10;4.90;99.90
36552;DHT22;22559;54.176;12.102;2023-01-30T00:06:37;4.90;99.90
36552;DHT22;22559;54.176;12.102;2023-01-30T00:09:03;4.90;99.90
36552;DHT22;22559;54.176;12.102;2023-01-30T00:11:29;4.90;99.90
36552;DHT22;22559;54.176;12.102;2023-01-30T00:13:57;4.90;99.90
36552;DHT22;22559;54.176;12.102;2023-01-30T00:16:24;5.00;99.90
36552;DHT22;22559;54.176;12.102;2023-01-30T00:18:49;5.00;99.90
36552;DHT22;22559;54.176;12.102;2023-01-30T00:21:16;5.00;99.90
36552;DHT22;22559;54.176;12.102;2023-01-30T00:23:42;5.00;99.90
36552;DHT22;22559;54.176;12.102;2023-01-30T00:26:09;5.00;99.90
36552;DHT22;22559;54.176;12.102;2023-01-30T00:28:35;5.10;99.90
36552;DHT22;22559;54.176;12.102;2023-01-30T00:31:02;5.10;99.90
36552;DHT22;22559;54.176;12.102;2023-01-30T00:33:28;5.10;99.90
36552;DHT22;22559;54.176;12.102;2023-01-30T00:35:55;5.10;99.90
36552;DHT22;22559;54.176;12.102;2023-01-30T00:38:22;5.20;99.90
36552;DHT22;22559;54.176;12.102;2023-01-30T00:40:48;5.20;99.90
36552;DHT22;22559;54.176;12.102;2023-01-30T00:43:18;5.20;99.90
36552;DHT22;22559;54.176;12.102;2023-01-30T00:46:28;5.20;99.90
36552;DHT22;22559;54.176;12.102;2023-01-30T00:49:16;5.20;99.90
36552;DHT22;22559;54.176;12.102;2023-01-30T00:51:42;5.20;99.90
36552;DHT22;22559;54.176;12.102;2023-01-30T00:54:08;5.20;99.90
36552;DHT22;22559;54.176;12.102;2023-01-30T00:56:33;5.20;99.90
36552;DHT22;22559;54.176;12.102;2023-01-30T00:58:59;5.20;99.90
36552;DHT22;22559;54.176;12.102;2023-01-30T01:01:25;5.20;99.90
36552;DHT22;22559;54.176;12.102;2023-01-30T01:03:51;5.30;99.90
36552;DHT22;22559;54.176;12.102;2023-01-30T01:06:16;5.30;99.90
36552;DHT22;22559;54.176;12.102;2023-01-30T01:08:42;5.30;99.90
36552;DHT22;22559;54.176;12.102;2023-01-30T01:11:08;5.30;99.90
36552;DHT22;22559;54.176;12.102;2023-01-30T01:13:33;5.30;99.90
36552;DHT22;22559;54.176;12.102;2023-01-30T01:15:59;5.30;99.90
36552;DHT22;22559;54.176;12.102;2023-01-30T01:18:25;5.30;99.90
36552;DHT22;22559;54.176;12.102;2023-01-30T01:20:50;5.30;99.90
36552;DHT22;22559;54.176;12.102;2023-01-30T01:23:16;5.30;99.90
36552;DHT22;22559;54.176;12.102;2023-01-30T01:25:42;5.30;99.90
36552;DHT22;22559;54.176;12.102;2023-01-30T01:28:07;5.40;99.90
36552;DHT22;22559;54.176;12.102;2023-01-30T01:30:33;5.40;99.90
36552;DHT22;22559;54.176;12.102;2023-01-30T01:32:58;5.40;99.90
36552;DHT22;22559;54.176;12.102;2023-01-30T01:35:24;5.50;99.90
36552;DHT22;22559;54.176;12.102;2023-01-30T01:37:53;5.50;99.90
36552;DHT22;22559;54.176;12.102;2023-01-30T01:40:20;5.30;99.90
36552;DHT22;22559;54.176;12.102;2023-01-30T01:43:15;5.30;99.90
36552;DHT22;22559;54.176;12.102;2023-01-30T01:45:41;5.20;99.90
36552;DHT22;22559;54.176;12.102;2023-01-30T01:48:30;5.20;99.90
36552;DHT22;22559;54.176;12.102;2023-01-30T01:51:00;5.20;99.90
36552;DHT22;22559;54.176;12.102;2023-01-30T01:53:38;5.10;99.90
36552;DHT22;22559;54.176;12.102;2023-01-30T01:56:06;5.10;99.90
36552;DHT22;22559;54.176;12.102;2023-01-30T01:58:39;5.10;99.90
36552;DHT22;22559;54.176;12.102;2023-01-30T02:01:06;5.10;99.90
36552;DHT22;22559;54.176;12.102;2023-01-30T02:03:36;5.10;99.90
36552;DHT22;22559;54.176;12.102;2023-01-30T02:06:03;5.00;99.90
36552;DHT22;22559;54.176;12.102;2023-01-30T02:08:36;5.00;99.90
36552;DHT22;22559;54.176;12.102;2023-01-30T02:13:28;5.10;99.90
36552;DHT22;22559;54.176;12.102;2023-01-30T02:15:56;5.10;99.90
36552;DHT22;22559;54.176;12.102;2023-01-30T02:18:23;5.10;99.90
36552;DHT22;22559;54.176;12.102;2023-01-30T02:21:34;5.10;99.90
36552;DHT22;22559;54.176;12.102;2023-01-30T02:32:02;5.10;99.90
36552;DHT22;22559;54.176;12.102;2023-01-30T02:42:46;5.10;99.90
36552;DHT22;22559;54.176;12.102;2023-01-30T02:48:09;5.10;99.90
36552;DHT22;22559;54.176;12.102;2023-01-30T02:50:43;5.10;99.90
36552;DHT22;22559;54.176;12.102;2023-01-30T02:53:10;5.10;99.90
36552;DHT22;22559;54.176;12.102;2023-01-30T02:55:39;5.10;99.90
36552;DHT22;22559;54.176;12.102;2023-01-30T02:58:05;5.10;99.90
36552;DHT22;22559;54.176;12.102;2023-01-30T03:14:46;5.20;99.90
36552;DHT22;22559;54.176;12.102;2023-01-30T03:17:14;5.10;99.90
36552;DHT22;22559;54.176;12.102;2023-01-30T03:19:41;5.20;99.90
36552;DHT22;22559;54.176;12.102;2023-01-30T03:22:07;5.20;99.90
36552;DHT22;22559;54.176;12.102;2023-01-30T03:24:33;5.20;99.90
36552;DHT22;22559;54.176;12.102;2023-01-30T03:27:08;5.20;99.90
36552;DHT22;22559;54.176;12.102;2023-01-30T03:29:35;5.30;99.90
36552;DHT22;22559;54.176;12.102;2023-01-30T03:32:00;5.30;99.90
36552;DHT22;22559;54.176;12.102;2023-01-30T03:34:26;5.30;99.90
36552;DHT22;22559;54.176;12.102;2023-01-30T03:36:52;5.30;99.90
36552;DHT22;22559;54.176;12.102;2023-01-30T03:39:17;5.40;99.90
36552;DHT22;22559;54.176;12.102;2023-01-30T03:41:43;5.30;99.90
36552;DHT22;22559;54.176;12.102;2023-01-30T03:44:09;5.40;99.90
36552;DHT22;22559;54.176;12.102;2023-01-30T03:46:34;5.40;99.90
36552;DHT22;22559;54.176;12.102;2023-01-30T03:49:00;5.40;99.90
36552;DHT22;22559;54.176;12.102;2023-01-30T03:51:26;5.40;99.90
36552;DHT22;22559;54.176;12.102;2023-01-30T03:53:51;5.50;99.90
36552;DHT22;22559;54.176;12.102;2023-01-30T03:56:17;5.50;99.90
36552;DHT22;22559;54.176;12.102;2023-01-30T03:58:43;5.50;99.90
36552;DHT22;22559;54.176;12.102;2023-01-30T04:01:08;5.50;99.90
36552;DHT22;22559;54.176;12.102;2023-01-30T04:03:34;5.60;99.90
36552;DHT22;22559;54.176;12.102;2023-01-30T04:05:59;5.60;99.90
36552;DHT22;22559;54.176;12.102;2023-01-30T04:08:25;5.60;99.90
36552;DHT22;22559;54.176;12.102;2023-01-30T04:10:51;5.70;99.90
36552;DHT22;22559;54.176;12.102;2023-01-30T04:13:16;5.70;99.90
36552;DHT22;22559;54.176;12.102;2023-01-30T04:15:42;5.70;99.90
36552;DHT22;22559;54.176;12.102;2023-01-30T04:18:08;5.80;99.90
36552;DHT22;22559;54.176;12.102;2023-01-30T04:20:33;5.80;99.90
36552;DHT22;22559;54.176;12.102;2023-01-30T04:22:59;5.80;99.90
36552;DHT22;22559;54.176;12.102;2023-01-30T04:25:25;5.80;99.90
36552;DHT22;22559;54.176;12.102;2023-01-30T04:27:50;5.80;99.90
36552;DHT22;22559;54.176;12.102;2023-01-30T04:30:16;5.80;99.90
36552;DHT22;22559;54.176;12.102;2023-01-30T04:32:42;5.80;99.90
36552;DHT22;22559;54.176;12.102;2023-01-30T04:35:08;5.80;99.90
36552;DHT22;22559;54.176;12.102;2023-01-30T04:37:33;5.80;99.90
36552;DHT22;22559;54.176;12.102;2023-01-30T04:39:59;5.80;99.90
36552;DHT22;22559;54.176;12.102;2023-01-30T04:42:25;5.80;99.90
36552;DHT22;22559;54.176;12.102;2023-01-30T04:44:50;5.80;99.90
36552;DHT22;22559;54.176;12.102;2023-01-30T04:47:16;5.80;99.90
36552;DHT22;22559;54.176;12.102;2023-01-30T04:49:42;5.80;99.90
36552;DHT22;22559;54.176;12.102;2023-01-30T04:52:08;5.80;99.90
36552;DHT22;22559;54.176;12.102;2023-01-30T04:54:33;5.80;99.90
36552;DHT22;22559;54.176;12.102;2023-01-30T04:56:59;5.80;99.90
36552;DHT22;22559;54.176;12.102;2023-01-30T04:59:24;5.90;99.90
36552;DHT22;22559;54.176;12.102;2023-01-30T05:01:50;5.90;99.90
36552;DHT22;22559;54.176;12.102;2023-01-30T05:04:16;5.90;99.90
36552;DHT22;22559;54.176;12.102;2023-01-30T05:06:41;5.90;99.90
36552;DHT22;22559;54.176;12.102;2023-01-30T05:09:07;6.00;99.90
36552;DHT22;22559;54.176;12.102;2023-01-30T05:11:33;6.00;99.90
36552;DHT22;22559;54.176;12.102;2023-01-30T05:13:59;6.00;99.90
36552;DHT22;22559;54.176;12.102;2023-01-30T05:16:25;6.00;99.90
36552;DHT22;22559;54.176;12.102;2023-01-30T05:18:51;5.90;99.90
36552;DHT22;22559;54.176;12.102;2023-01-30T05:21:19;6.00;99.90
36552;DHT22;22559;54.176;12.102;2023-01-30T05:23:45;6.00;99.90
36552;DHT22;22559;54.176;12.102;2023-01-30T05:26:12;6.00;99.90
36552;DHT22;22559;54.176;12.102;2023-01-30T05:28:38;6.00;99.90
36552;DHT22;22559;54.176;12.102;2023-01-30T05:31:11;6.00;99.90
36552;DHT22;22559;54.176;12.102;2023-01-30T05:33:38;6.00;99.90
36552;DHT22;22559;54.176;12.102;2023-01-30T05:36:04;6.00;99.90
36552;DHT22;22559;54.176;12.102;2023-01-30T05:38:30;6.00;99.90
36552;DHT22;22559;54.176;12.102;2023-01-30T05:41:01;6.00;99.90
36552;DHT22;22559;54.176;12.102;2023-01-30T05:43:27;6.10;99.90
36552;DHT22;22559;54.176;12.102;2023-01-30T05:45:54;6.10;99.90
36552;DHT22;22559;54.176;12.102;2023-01-30T05:48:21;6.10;99.90
36552;DHT22;22559;54.176;12.102;2023-01-30T05:50:52;5.90;99.90
36552;DHT22;22559;54.176;12.102;2023-01-30T05:53:19;5.90;99.90
36552;DHT22;22559;54.176;12.102;2023-01-30T05:55:46;5.90;99.90
36552;DHT22;22559;54.176;12.102;2023-01-30T05:58:11;5.80;99.90
36552;DHT22;22559;54.176;12.102;2023-01-30T06:00:37;5.80;99.90
36552;DHT22;22559;54.176;12.102;2023-01-30T06:03:03;5.80;99.90
36552;DHT22;22559;54.176;12.102;2023-01-30T06:05:29;5.80;99.90
36552;DHT22;22559;54.176;12.102;2023-01-30T06:07:54;5.80;99.90
36552;DHT22;22559;54.176;12.102;2023-01-30T06:10:20;5.80;99.90
36552;DHT22;22559;54.176;12.102;2023-01-30T06:12:46;5.80;99.90
36552;DHT22;22559;54.176;12.102;2023-01-30T06:15:12;5.80;99.90
36552;DHT22;22559;54.176;12.102;2023-01-30T06:17:41;5.70;99.90
36552;DHT22;22559;54.176;12.102;2023-01-30T06:20:08;5.60;99.90
36552;DHT22;22559;54.176;12.102;2023-01-30T06:22:34;5.70;99.90
36552;DHT22;22559;54.176;12.102;2023-01-30T06:24:59;5.70;99.90
36552;DHT22;22559;54.176;12.102;2023-01-30T06:27:25;5.70;99.90
36552;DHT22;22559;54.176;12.102;2023-01-30T06:29:50;5.70;99.90
36552;DHT22;22559;54.176;12.102;2023-01-30T06:32:16;5.70;99.90
36552;DHT22;22559;54.176;12.102;2023-01-30T06:34:42;5.70;99.90
36552;DHT22;22559;54.176;12.102;2023-01-30T06:37:07;5.70;99.90
36552;DHT22;22559;54.176;12.102;2023-01-30T06:39:33;5.80;99.90
36552;DHT22;22559;54.176;12.102;2023-01-30T06:41:59;5.80;99.90
36552;DHT22;22559;54.176;12.102;2023-01-30T06:44:24;5.80;99.90
36552;DHT22;22559;54.176;12.102;2023-01-30T06:46:51;5.80;99.90
36552;DHT22;22559;54.176;12.102;2023-01-30T06:49:17;5.90;99.90
36552;DHT22;22559;54.176;12.102;2023-01-30T06:51:42;5.90;99.90
36552;DHT22;22559;54.176;12.102;2023-01-30T06:54:08;5.90;99.90
36552;DHT22;22559;54.176;12.102;2023-01-30T06:56:33;5.90;99.90
36552;DHT22;22559;54.176;12.102;2023-01-30T06:58:59;5.90;99.90
36552;DHT22;22559;54.176;12.102;2023-01-30T07:01:25;5.90;99.90
36552;DHT22;22559;54.176;12.102;2023-01-30T07:03:50;5.90;99.90
36552;DHT22;22559;54.176;12.102;2023-01-30T07:06:16;5.90;99.90
36552;DHT22;22559;54.176;12.102;2023-01-30T07:08:42;5.90;99.90
36552;DHT22;22559;54.176;12.102;2023-01-30T07:11:09;5.90;99.90
36552;DHT22;22559;54.176;12.102;2023-01-30T07:13:34;5.80;99.90
36552;DHT22;22559;54.176;12.102;2023-01-30T07:16:00;5.80;99.90
36552;DHT22;22559;54.176;12.102;2023-01-30T07:18:26;5.80;99.90
36552;DHT22;22559;54.176;12.102;2023-01-30T07:20:51;5.60;99.90
36552;DHT22;22559;54.176;12.102;2023-01-30T07:23:17;5.40;99.90
36552;DHT22;22559;54.176;12.102;2023-01-30T07:25:43;5.30;99.90
36552;DHT22;22559;54.176;12.102;2023-01-30T07:28:09;5.20;99.90
36552;DHT22;22559;54.176;12.102;2023-01-30T07:30:35;5.10;99.90
36552;DHT22;22559;54.176;12.102;2023-01-30T07:33:03;5.10;99.90
36552;DHT22;22559;54.176;12.102;2023-01-30T07:35:31;5.10;99.90
36552;DHT22;22559;54.176;12.102;2023-01-30T07:37:58;5.00;99.90
36552;DHT22;22559;54.176;12.102;2023-01-30T07:40:24;4.90;99.90
36552;DHT22;22559;54.176;12.102;2023-01-30T07:42:58;4.80;99.90
36552;DHT22;22559;54.176;12.102;2023-01-30T07:45:24;4.70;99.90
36552;DHT22;22559;54.176;12.102;2023-01-30T07:47:50;4.70;99.90
36552;DHT22;22559;54.176;12.102;2023-01-30T07:50:16;4.70;99.90
36552;DHT22;22559;54.176;12.102;2023-01-30T07:52:41;4.70;99.90
36552;DHT22;22559;54.176;12.102;2023-01-30T07:55:07;4.70;99.90
36552;DHT22;22559;54.176;12.102;2023-01-30T07:57:33;4.60;99.90
36552;DHT22;22559;54.176;12.102;2023-01-30T07:59:58;4.60;99.90
36552;DHT22;22559;54.176;12.102;2023-01-30T08:02:24;4.70;99.90
36552;DHT22;22559;54.176;12.102;2023-01-30T08:04:49;4.90;99.90
36552;DHT22;22559;54.176;12.102;2023-01-30T08:07:15;5.10;99.90
36552;DHT22;22559;54.176;12.102;2023-01-30T08:09:41;5.10;99.90
36552;DHT22;22559;54.176;12.102;2023-01-30T08:12:06;5.10;99.90
36552;DHT22;22559;54.176;12.102;2023-01-30T08:14:32;5.30;99.90
36552;DHT22;22559;54.176;12.102;2023-01-30T08:16:58;5.40;99.90
36552;DHT22;22559;54.176;12.102;2023-01-30T08:19:23;5.60;99.90
36552;DHT22;22559;54.176;12.102;2023-01-30T08:21:49;5.60;99.90
36552;DHT22;22559;54.176;12.102;2023-01-30T08:24:15;5.50;99.90
36552;DHT22;22559;54.176;12.102;2023-01-30T08:26:40;5.40;99.90
36552;DHT22;22559;54.176;12.102;2023-01-30T08:29:06;5.20;99.90
36552;DHT22;22559;54.176;12.102;2023-01-30T08:31:32;5.20;99.90
36552;DHT22;22559;54.176;12.102;2023-01-30T08:33:57;5.20;99.90
36552;DHT22;22559;54.176;12.102;2023-01-30T08:36:23;5.20;99.90
36552;DHT22;22559;54.176;12.102;2023-01-30T08:38:48;5.20;99.90
36552;DHT22;22559;54.176;12.102;2023-01-30T08:41:14;5.10;99.90
36552;DHT22;22559;54.176;12.102;2023-01-30T08:43:40;4.80;99.90
36552;DHT22;22559;54.176;12.102;2023-01-30T08:46:06;4.50;99.90
36552;DHT22;22559;54.176;12.102;2023-01-30T08:48:31;4.10;99.90
36552;DHT22;22559;54.176;12.102;2023-01-30T08:50:57;3.90;99.90
36552;DHT22;22559;54.176;12.102;2023-01-30T08:53:23;3.80;99.90
36552;DHT22;22559;54.176;12.102;2023-01-30T08:55:50;3.70;99.90
36552;DHT22;22559;54.176;12.102;2023-01-30T08:58:16;3.80;99.90
36552;DHT22;22559;54.176;12.102;2023-01-30T09:00:41;3.80;99.90
36552;DHT22;22559;54.176;12.102;2023-01-30T09:03:09;3.80;99.90
36552;DHT22;22559;54.176;12.102;2023-01-30T09:05:35;3.80;99.90
36552;DHT22;22559;54.176;12.102;2023-01-30T09:08:00;3.90;99.90
36552;DHT22;22559;54.176;12.102;2023-01-30T09:10:26;3.90;99.90
36552;DHT22;22559;54.176;12.102;2023-01-30T09:12:52;4.00;99.90
36552;DHT22;22559;54.176;12.102;2023-01-30T09:15:17;4.00;99.90
36552;DHT22;22559;54.176;12.102;2023-01-30T09:17:43;4.10;99.90
36552;DHT22;22559;54.176;12.102;2023-01-30T09:20:10;4.30;99.90
36552;DHT22;22559;54.176;12.102;2023-01-30T09:22:36;4.40;99.90
36552;DHT22;22559;54.176;12.102;2023-01-30T09:25:02;4.40;99.90
36552;DHT22;22559;54.176;12.102;2023-01-30T09:27:29;4.10;99.90
36552;DHT22;22559;54.176;12.102;2023-01-30T09:29:54;4.00;99.90
36552;DHT22;22559;54.176;12.102;2023-01-30T09:32:20;3.90;99.90
36552;DHT22;22559;54.176;12.102;2023-01-30T09:34:46;4.00;99.90
36552;DHT22;22559;54.176;12.102;2023-01-30T09:37:11;4.00;99.90
36552;DHT22;22559;54.176;12.102;2023-01-30T09:39:37;3.90;99.90
36552;DHT22;22559;54.176;12.102;2023-01-30T09:55:58;4.40;99.90
36552;DHT22;22559;54.176;12.102;2023-01-30T09:58:24;4.40;99.90
36552;DHT22;22559;54.176;12.102;2023-01-30T10:00:55;4.40;99.90
36552;DHT22;22559;54.176;12.102;2023-01-30T10:03:28;4.40;99.90
36552;DHT22;22559;54.176;12.102;2023-01-30T10:06:00;4.50;99.90
36552;DHT22;22559;54.176;12.102;2023-01-30T10:17:03;5.00;99.90
36552;DHT22;22559;54.176;12.102;2023-01-30T10:25:21;6.40;99.90
36552;DHT22;22559;54.176;12.102;2023-01-30T10:27:54;6.80;99.90
36552;DHT22;22559;54.176;12.102;2023-01-30T10:30:21;6.80;99.90
36552;DHT22;22559;54.176;12.102;2023-01-30T10:35:19;7.20;99.90
36552;DHT22;22559;54.176;12.102;2023-01-30T10:40:51;7.10;99.90
36552;DHT22;22559;54.176;12.102;2023-01-30T10:43:31;7.40;99.90
36552;DHT22;22559;54.176;12.102;2023-01-30T10:54:26;7.30;99.90
36552;DHT22;22559;54.176;12.102;2023-01-30T11:03:15;7.20;99.90
36552;DHT22;22559;54.176;12.102;2023-01-30T11:05:20;7.00;99.90
36552;DHT22;22559;54.176;12.102;2023-01-30T11:07:48;7.00;99.90
36552;DHT22;22559;54.176;12.102;2023-01-30T11:10:22;7.10;99.90
36552;DHT22;22559;54.176;12.102;2023-01-30T11:13:00;7.10;99.90
36552;DHT22;22559;54.176;12.102;2023-01-30T11:15:40;6.80;99.90
36552;DHT22;22559;54.176;12.102;2023-01-30T11:18:07;6.60;99.90
36552;DHT22;22559;54.176;12.102;2023-01-30T11:20:39;6.50;99.90
36552;DHT22;22559;54.176;12.102;2023-01-30T11:23:08;6.40;99.90
36552;DHT22;22559;54.176;12.102;2023-01-30T11:25:52;6.30;99.90
36552;DHT22;22559;54.176;12.102;2023-01-30T11:28:18;6.30;99.90
36552;DHT22;22559;54.176;12.102;2023-01-30T11:30:56;6.40;99.90
36552;DHT22;22559;54.176;12.102;2023-01-30T11:33:33;6.60;99.90
36552;DHT22;22559;54.176;12.102;2023-01-30T11:36:02;6.60;99.90
36552;DHT22;22559;54.176;12.102;2023-01-30T11:38:30;6.60;99.90
36552;DHT22;22559;54.176;12.102;2023-01-30T11:41:17;6.50;99.90
36552;DHT22;22559;54.176;12.102;2023-01-30T11:43:44;6.40;99.90
36552;DHT22;22559;54.176;12.102;2023-01-30T11:46:12;6.30;99.90
36552;DHT22;22559;54.176;12.102;2023-01-30T11:49:03;6.30;99.90
36552;DHT22;22559;54.176;12.102;2023-01-30T11:51:32;6.30;99.90
36552;DHT22;22559;54.176;12.102;2023-01-30T11:54:02;6.30;99.90
36552;DHT22;22559;54.176;12.102;2023-01-30T11:56:51;6.30;99.90
36552;DHT22;22559;54.176;12.102;2023-01-30T11:59:30;6.20;99.90
36552;DHT22;22559;54.176;12.102;2023-01-30T12:04:42;5.90;99.90
36552;DHT22;22559;54.176;12.102;2023-01-30T12:07:23;5.80;99.90
36552;DHT22;22559;54.176;12.102;2023-01-30T12:09:49;5.80;99.90
36552;DHT22;22559;54.176;12.102;2023-01-30T12:12:36;5.70;99.90
36552;DHT22;22559;54.176;12.102;2023-01-30T12:20:38;5.70;99.90
36552;DHT22;22559;54.176;12.102;2023-01-30T12:23:14;5.70;99.90
36552;DHT22;22559;54.176;12.102;2023-01-30T12:28:23;5.80;99.90
36552;DHT22;22559;54.176;12.102;2023-01-30T12:30:56;5.90;99.90
36552;DHT22;22559;54.176;12.102;2023-01-30T12:33:27;5.90;99.90
36552;DHT22;22559;54.176;12.102;2023-01-30T12:46:42;5.80;99.90
36552;DHT22;22559;54.176;12.102;2023-01-30T12:52:41;6.00;99.90
36552;DHT22;22559;54.176;12.102;2023-01-30T12:55:21;6.60;99.90
36552;DHT22;22559;54.176;12.102;2023-01-30T12:58:05;7.10;99.90
36552;DHT22;22559;54.176;12.102;2023-01-30T13:03:49;7.40;99.90
36552;DHT22;22559;54.176;12.102;2023-01-30T13:06:44;7.40;99.90
36552;DHT22;22559;54.176;12.102;2023-01-30T13:15:09;7.00;99.90
36552;DHT22;22559;54.176;12.102;2023-01-30T13:23:11;6.80;99.90
36552;DHT22;22559;54.176;12.102;2023-01-30T13:28:25;6.60;99.90
36552;DHT22;22559;54.176;12.102;2023-01-30T13:30:52;6.50;99.90
36552;DHT22;22559;54.176;12.102;2023-01-30T13:33:25;6.40;99.90
36552;DHT22;22559;54.176;12.102;2023-01-30T13:36:01;6.50;99.90
36552;DHT22;22559;54.176;12.102;2023-01-30T13:38:29;6.80;99.90
36552;DHT22;22559;54.176;12.102;2023-01-30T13:40:57;7.10;99.90
36552;DHT22;22559;54.176;12.102;2023-01-30T13:43:28;7.50;99.90
36552;DHT22;22559;54.176;12.102;2023-01-30T13:45:57;7.70;99.90
36552;DHT22;22559;54.176;12.102;2023-01-30T13:48:43;7.70;99.90
36552;DHT22;22559;54.176;12.102;2023-01-30T13:54:27;8.00;99.90
36552;DHT22;22559;54.176;12.102;2023-01-30T14:02:25;7.70;99.90
36552;DHT22;22559;54.176;12.102;2023-01-30T14:04:55;7.60;99.90
36552;DHT22;22559;54.176;12.102;2023-01-30T14:07:38;7.20;99.90
36552;DHT22;22559;54.176;12.102;2023-01-30T14:18:04;6.70;99.90
36552;DHT22;22559;54.176;12.102;2023-01-30T14:22:59;6.60;99.90
36552;DHT22;22559;54.176;12.102;2023-01-30T14:27:56;6.40;99.90
36552;DHT22;22559;54.176;12.102;2023-01-30T14:30:49;6.40;99.90
36552;DHT22;22559;54.176;12.102;2023-01-30T14:36:32;6.30;99.90
36552;DHT22;22559;54.176;12.102;2023-01-30T14:38:35;6.40;99.90
36552;DHT22;22559;54.176;12.102;2023-01-30T14:57:01;6.10;99.90
36552;DHT22;22559;54.176;12.102;2023-01-30T15:02:17;6.10;99.90
36552;DHT22;22559;54.176;12.102;2023-01-30T15:05:06;6.10;99.90
36552;DHT22;22559;54.176;12.102;2023-01-30T15:08:01;6.00;99.90
36552;DHT22;22559;54.176;12.102;2023-01-30T15:10:55;6.00;99.90
36552;DHT22;22559;54.176;12.102;2023-01-30T15:16:32;6.00;99.90
36552;DHT22;22559;54.176;12.102;2023-01-30T15:30:31;6.20;99.90
36552;DHT22;22559;54.176;12.102;2023-01-30T15:35:39;6.30;99.90
36552;DHT22;22559;54.176;12.102;2023-01-30T15:38:22;6.30;99.90
36552;DHT22;22559;54.176;12.102;2023-01-30T15:40:50;6.30;99.90
36552;DHT22;22559;54.176;12.102;2023-01-30T15:46:26;6.40;99.90
36552;DHT22;22559;54.176;12.102;2023-01-30T15:51:30;6.30;99.90
36552;DHT22;22559;54.176;12.102;2023-01-30T15:54:00;6.40;99.90
36552;DHT22;22559;54.176;12.102;2023-01-30T15:56:29;6.30;99.90
36552;DHT22;22559;54.176;12.102;2023-01-30T15:58:57;6.40;99.90
36552;DHT22;22559;54.176;12.102;2023-01-30T16:01:24;6.30;99.90
36552;DHT22;22559;54.176;12.102;2023-01-30T16:03:50;6.30;99.90
36552;DHT22;22559;54.176;12.102;2023-01-30T16:06:23;6.20;99.90
36552;DHT22;22559;54.176;12.102;2023-01-30T16:08:59;6.30;99.90
36552;DHT22;22559;54.176;12.102;2023-01-30T16:11:39;6.30;99.90
36552;DHT22;22559;54.176;12.102;2023-01-30T16:14:13;6.20;99.90
36552;DHT22;22559;54.176;12.102;2023-01-30T16:16:44;6.30;99.90
36552;DHT22;22559;54.176;12.102;2023-01-30T16:19:30;6.20;99.90
36552;DHT22;22559;54.176;12.102;2023-01-30T16:22:03;6.20;99.90
36552;DHT22;22559;54.176;12.102;2023-01-30T16:24:31;6.20;99.90
36552;DHT22;22559;54.176;12.102;2023-01-30T16:27:01;6.20;99.90
36552;DHT22;22559;54.176;12.102;2023-01-30T16:29:30;6.20;99.90
36552;DHT22;22559;54.176;12.102;2023-01-30T16:31:56;6.20;99.90
36552;DHT22;22559;54.176;12.102;2023-01-30T16:39:43;6.10;99.90
36552;DHT22;22559;54.176;12.102;2023-01-30T16:42:36;6.10;99.90
36552;DHT22;22559;54.176;12.102;2023-01-30T16:47:37;6.10;99.90
36552;DHT22;22559;54.176;12.102;2023-01-30T16:50:04;6.10;99.90
36552;DHT22;22559;54.176;12.102;2023-01-30T16:52:37;6.10;99.90
36552;DHT22;22559;54.176;12.102;2023-01-30T16:55:19;6.10;99.90
36552;DHT22;22559;54.176;12.102;2023-01-30T16:57:56;6.10;99.90
36552;DHT22;22559;54.176;12.102;2023-01-30T17:03:01;6.00;99.90
36552;DHT22;22559;54.176;12.102;2023-01-30T17:05:38;6.10;99.90
36552;DHT22;22559;54.176;12.102;2023-01-30T17:08:04;6.10;99.90
36552;DHT22;22559;54.176;12.102;2023-01-30T17:13:02;6.00;99.90
36552;DHT22;22559;54.176;12.102;2023-01-30T17:15:30;6.00;99.90
36552;DHT22;22559;54.176;12.102;2023-01-30T17:17:56;5.90;99.90
36552;DHT22;22559;54.176;12.102;2023-01-30T17:20:22;6.00;99.90
36552;DHT22;22559;54.176;12.102;2023-01-30T17:22:49;6.00;99.90
36552;DHT22;22559;54.176;12.102;2023-01-30T17:25:35;6.00;99.90
36552;DHT22;22559;54.176;12.102;2023-01-30T17:28:04;6.00;99.90
36552;DHT22;22559;54.176;12.102;2023-01-30T17:30:31;6.00;99.90
36552;DHT22;22559;54.176;12.102;2023-01-30T17:32:56;6.00;99.90
36552;DHT22;22559;54.176;12.102;2023-01-30T17:35:22;5.90;99.90
36552;DHT22;22559;54.176;12.102;2023-01-30T17:37:48;5.90;99.90
36552;DHT22;22559;54.176;12.102;2023-01-30T17:40:16;5.90;99.90
36552;DHT22;22559;54.176;12.102;2023-01-30T17:42:42;5.90;99.90
36552;DHT22;22559;54.176;12.102;2023-01-30T17:45:08;5.90;99.90
36552;DHT22;22559;54.176;12.102;2023-01-30T17:47:35;5.90;99.90
36552;DHT22;22559;54.176;12.102;2023-01-30T17:50:00;5.90;99.90
36552;DHT22;22559;54.176;12.102;2023-01-30T17:52:26;5.90;99.90
36552;DHT22;22559;54.176;12.102;2023-01-30T17:54:51;5.90;99.90
36552;DHT22;22559;54.176;12.102;2023-01-30T17:57:17;5.90;99.90
36552;DHT22;22559;54.176;12.102;2023-01-30T17:59:44;5.90;99.90
36552;DHT22;22559;54.176;12.102;2023-01-30T18:02:11;5.80;99.90
36552;DHT22;22559;54.176;12.102;2023-01-30T18:04:37;5.80;99.90
36552;DHT22;22559;54.176;12.102;2023-01-30T18:07:06;5.90;99.90
36552;DHT22;22559;54.176;12.102;2023-01-30T18:09:36;5.90;99.90
36552;DHT22;22559;54.176;12.102;2023-01-30T18:12:02;5.90;99.90
36552;DHT22;22559;54.176;12.102;2023-01-30T18:14:28;5.90;99.90
36552;DHT22;22559;54.176;12.102;2023-01-30T18:16:54;5.90;99.90
36552;DHT22;22559;54.176;12.102;2023-01-30T18:19:25;5.80;99.90
36552;DHT22;22559;54.176;12.102;2023-01-30T18:21:51;5.80;99.90
36552;DHT22;22559;54.176;12.102;2023-01-30T18:24:17;5.70;99.90
36552;DHT22;22559;54.176;12.102;2023-01-30T18:26:44;5.70;99.90
36552;DHT22;22559;54.176;12.102;2023-01-30T18:29:10;5.60;99.90
36552;DHT22;22559;54.176;12.102;2023-01-30T18:31:37;5.60;99.90
36552;DHT22;22559;54.176;12.102;2023-01-30T18:34:03;5.50;99.90
36552;DHT22;22559;54.176;12.102;2023-01-30T18:36:32;5.50;99.90
36552;DHT22;22559;54.176;12.102;2023-01-30T18:38:58;5.50;99.90
36552;DHT22;22559;54.176;12.102;2023-01-30T18:41:24;5.60;99.90
36552;DHT22;22559;54.176;12.102;2023-01-30T18:43:57;5.50;99.90
36552;DHT22;22559;54.176;12.102;2023-01-30T18:46:24;5.50;99.90
36552;DHT22;22559;54.176;12.102;2023-01-30T18:48:50;5.40;99.90
36552;DHT22;22559;54.176;12.102;2023-01-30T18:51:24;5.40;99.90
36552;DHT22;22559;54.176;12.102;2023-01-30T18:53:51;5.30;99.90
36552;DHT22;22559;54.176;12.102;2023-01-30T18:56:21;5.30;99.90
36552;DHT22;22559;54.176;12.102;2023-01-30T18:58:47;5.40;99.90
36552;DHT22;22559;54.176;12.102;2023-01-30T19:01:41;5.40;99.90
36552;DHT22;22559;54.176;12.102;2023-01-30T19:04:10;5.40;99.90
36552;DHT22;22559;54.176;12.102;2023-01-30T19:06:38;5.40;99.90